Ferrin, Illinois
Current Conditions -  °F | °C
As of 1:55 PM on Tuesday 21 Oct 2014 (Local Time) from KENL Reporting Station
Clear Clear  
Wind Chill: 65°   Ceiling: Unl
Heat Index: 65°   Visibility: 7mi
Dew Point: 44°   Wind: 9mph
Humidity: 47%   Direction: 350°N
Pressure: 30.1"   Gusts: NA
Location:  38.5905°N, 89.3709°W
Report Text: KENL 211855Z AUTO 35008KT 7SM CLR 18/07 A3010 RMK AO2 T01810066
Loading
Personal Weather Stations






























Interactive Weather Map
Tropical Storm Tracking
New forecast layout! Learn more

10-Day Weather Forecast

Advertisements
Track Severe Weather on mobile